Time;durP1;ratioP1;P1;durP2;ratioP2;P2;SDS_P1;SDS_P2;PMS_P1;PMS_P2;Temp;Humidity;BMP_temperature;BMP_pressure;BME280_temperature;BME280_humidity;BME280_pressure;Samples;Min_cycle;Max_cycle;Signal;HPM_P1;HPM_P2
2022/09/29 00:00:49;;;;;;;15.65;7.72;;;;;;;;;;5033990;28;20039;-68
2022/09/29 00:03:14;;;;;;;12.07;7.25;;;;;;;;;;5037448;28;20683;-68
2022/09/29 00:05:45;;;;;;;14.85;7.68;;;;;;;;;;5047153;28;20036;-68
2022/09/29 00:08:10;;;;;;;13.75;7.43;;;;;;;;;;5039502;28;20094;-68
2022/09/29 00:10:39;;;;;;;12.73;7.55;;;;;;;;;;5064406;28;20040;-68
2022/09/29 00:13:08;;;;;;;10.30;6.63;;;;;;;;;;5027199;28;20112;-68
2022/09/29 00:15:34;;;;;;;13.32;6.82;;;;;;;;;;5049805;28;20101;-68
2022/09/29 00:17:59;;;;;;;17.15;6.60;;;;;;;;;;5043964;28;20074;-68
2022/09/29 00:20:24;;;;;;;10.15;6.40;;;;;;;;;;5052813;28;20133;-67
2022/09/29 00:22:50;;;;;;;12.30;6.65;;;;;;;;;;5052854;28;20029;-68
2022/09/29 00:25:16;;;;;;;13.48;6.55;;;;;;;;;;5045624;28;20034;-68
2022/09/29 00:27:41;;;;;;;16.15;6.63;;;;;;;;;;5054727;28;20506;-67
2022/09/29 00:30:06;;;;;;;14.65;7.63;;;;;;;;;;5035911;28;20047;-68
2022/09/29 00:32:32;;;;;;;14.55;8.25;;;;;;;;;;5052455;28;20032;-68
2022/09/29 00:34:57;;;;;;;21.45;8.90;;;;;;;;;;5051498;28;20484;-69
2022/09/29 00:37:22;;;;;;;13.60;8.70;;;;;;;;;;5052670;28;20094;-67
2022/09/29 00:39:47;;;;;;;15.38;7.45;;;;;;;;;;5053075;28;20157;-69
2022/09/29 00:42:22;;;;;;;15.77;7.10;;;;;;;;;;5065094;28;20132;-70
2022/09/29 00:44:58;;;;;;;12.40;6.85;;;;;;;;;;5031657;28;20036;-68
2022/09/29 00:47:24;;;;;;;11.95;6.78;;;;;;;;;;5032233;28;20044;-69
2022/09/29 00:49:50;;;;;;;13.50;7.10;;;;;;;;;;5062412;28;20041;-66
2022/09/29 00:52:27;;;;;;;13.77;6.53;;;;;;;;;;5032049;28;20048;-69
2022/09/29 00:54:58;;;;;;;11.68;6.40;;;;;;;;;;5035011;28;20040;-67
2022/09/29 00:57:27;;;;;;;13.95;6.55;;;;;;;;;;5034979;28;20049;-67
2022/09/29 00:59:57;;;;;;;9.90;6.10;;;;;;;;;;5030543;28;20068;-68
2022/09/29 01:02:22;;;;;;;12.23;6.18;;;;;;;;;;5031046;28;20167;-68
2022/09/29 01:04:51;;;;;;;12.35;7.07;;;;;;;;;;5031221;28;20078;-69
2022/09/29 01:07:18;;;;;;;11.77;6.93;;;;;;;;;;5032334;28;20115;-68
2022/09/29 01:09:43;;;;;;;13.20;7.60;;;;;;;;;;5041096;28;20116;-69
2022/09/29 01:12:08;;;;;;;13.70;7.00;;;;;;;;;;5032429;28;20046;-68
2022/09/29 01:14:35;;;;;;;18.88;9.10;;;;;;;;;;5064089;28;20044;-68
2022/09/29 01:17:01;;;;;;;15.57;8.73;;;;;;;;;;5032058;28;20126;-68
2022/09/29 01:19:36;;;;;;;13.35;9.05;;;;;;;;;;5063617;28;20041;-68
2022/09/29 01:22:18;;;;;;;16.13;9.93;;;;;;;;;;5028405;28;20041;-69
2022/09/29 01:24:43;;;;;;;;;;;;;;;;;;5030436;28;20043;-68
2022/09/29 01:27:11;;;;;;;18.38;10.27;;;;;;;;;;5030594;28;19912;-67
2022/09/29 01:29:39;;;;;;;21.77;11.38;;;;;;;;;;5031460;28;20044;-69
2022/09/29 01:32:11;;;;;;;16.95;9.73;;;;;;;;;;5028736;28;21767;-67
2022/09/29 01:34:49;;;;;;;16.30;9.82;;;;;;;;;;5028902;28;21060;-68
2022/09/29 01:37:33;;;;;;;21.20;10.20;;;;;;;;;;5028416;28;20115;-69
2022/09/29 01:40:07;;;;;;;19.30;10.77;;;;;;;;;;5027176;28;21034;-68
2022/09/29 01:42:35;;;;;;;27.42;13.13;;;;;;;;;;5044812;28;20055;-70
2022/09/29 01:45:03;;;;;;;23.95;11.95;;;;;;;;;;5049680;28;20040;-68
2022/09/29 01:47:32;;;;;;;22.73;11.40;;;;;;;;;;5056400;28;20101;-68
2022/09/29 01:50:03;;;;;;;22.75;13.27;;;;;;;;;;5048233;28;20813;-68
2022/09/29 01:52:31;;;;;;;20.55;12.60;;;;;;;;;;5045131;28;20749;-68
2022/09/29 01:55:00;;;;;;;20.02;11.95;;;;;;;;;;5046039;28;20186;-70
2022/09/29 01:57:25;;;;;;;24.65;15.25;;;;;;;;;;5045452;28;20116;-69
2022/09/29 02:00:01;;;;;;;27.45;15.35;;;;;;;;;;5045404;28;20048;-68
2022/09/29 02:02:31;;;;;;;21.55;12.55;;;;;;;;;;5047545;28;20075;-68
2022/09/29 02:04:58;;;;;;;23.77;14.13;;;;;;;;;;5047460;28;20043;-67
2022/09/29 02:07:38;;;;;;;20.88;13.57;;;;;;;;;;5048776;28;20032;-67
2022/09/29 02:10:08;;;;;;;22.35;12.52;;;;;;;;;;5021480;28;20165;-67
2022/09/29 02:12:37;;;;;;;21.83;13.20;;;;;;;;;;5051973;28;20113;-69
2022/09/29 02:15:08;;;;;;;18.77;12.23;;;;;;;;;;5059854;28;21762;-69
2022/09/29 02:17:37;;;;;;;20.80;12.52;;;;;;;;;;5038845;28;20112;-69
2022/09/29 02:20:03;;;;;;;17.83;11.48;;;;;;;;;;5045802;28;20036;-69
2022/09/29 02:22:31;;;;;;;20.17;13.98;;;;;;;;;;5044702;28;20116;-68
2022/09/29 02:24:58;;;;;;;22.77;15.27;;;;;;;;;;5045360;28;20040;-68
2022/09/29 02:27:27;;;;;;;20.85;13.35;;;;;;;;;;5044890;28;20035;-68
2022/09/29 02:29:53;;;;;;;20.63;12.50;;;;;;;;;;5028910;28;22602;-68
2022/09/29 02:32:18;;;;;;;16.30;13.07;;;;;;;;;;5044618;28;20043;-69
2022/09/29 02:34:45;;;;;;;21.63;13.05;;;;;;;;;;5043695;28;20095;-68
2022/09/29 02:37:10;;;;;;;18.70;12.25;;;;;;;;;;5019369;28;20032;-68
2022/09/29 02:39:38;;;;;;;22.23;15.00;;;;;;;;;;5043143;28;20040;-69
2022/09/29 02:42:28;;;;;;;20.33;14.07;;;;;;;;;;5041907;28;20121;-64
2022/09/29 02:45:05;;;;;;;25.35;14.88;;;;;;;;;;5022908;28;20036;-69
2022/09/29 02:47:31;;;;;;;22.70;14.93;;;;;;;;;;5061087;28;20711;-68
2022/09/29 02:49:57;;;;;;;20.05;13.35;;;;;;;;;;5045604;28;20032;-68
2022/09/29 02:52:31;;;;;;;22.35;13.68;;;;;;;;;;5027743;28;20611;-68
2022/09/29 02:55:01;;;;;;;20.90;12.98;;;;;;;;;;5046022;28;20113;-68
2022/09/29 02:57:32;;;;;;;28.38;16.70;;;;;;;;;;5028647;28;20618;-68
2022/09/29 03:00:09;;;;;;;22.20;14.57;;;;;;;;;;5044629;28;20926;-69
2022/09/29 03:02:38;;;;;;;22.83;14.75;;;;;;;;;;5045117;28;20025;-68
2022/09/29 03:05:04;;;;;;;27.33;18.15;;;;;;;;;;5059683;28;20028;-68
2022/09/29 03:07:30;;;;;;;26.73;16.63;;;;;;;;;;5042597;28;20042;-68
2022/09/29 03:09:56;;;;;;;25.27;17.50;;;;;;;;;;5042275;28;20039;-69
2022/09/29 03:12:21;;;;;;;23.10;16.02;;;;;;;;;;5043225;28;20033;-69
2022/09/29 03:14:47;;;;;;;23.00;15.43;;;;;;;;;;5042775;28;20056;-68
2022/09/29 03:17:14;;;;;;;25.92;15.18;;;;;;;;;;5041299;28;20024;-68
2022/09/29 03:19:40;;;;;;;22.98;15.05;;;;;;;;;;5043318;28;20040;-69
2022/09/29 03:22:05;;;;;;;31.65;19.15;;;;;;;;;;5011180;28;20043;-69
2022/09/29 03:24:33;;;;;;;38.45;26.75;;;;;;;;;;5059680;28;20123;-68
2022/09/29 03:26:58;;;;;;;40.63;30.20;;;;;;;;;;5042464;28;20032;-68
2022/09/29 03:29:24;;;;;;;40.75;25.85;;;;;;;;;;5044313;28;20044;-68
2022/09/29 03:31:49;;;;;;;39.90;27.60;;;;;;;;;;5040595;28;20127;-70
2022/09/29 03:34:15;;;;;;;37.20;25.42;;;;;;;;;;5040113;28;20036;-71
2022/09/29 03:36:40;;;;;;;34.53;24.23;;;;;;;;;;5040895;28;20051;-68
2022/09/29 03:39:07;;;;;;;40.72;23.80;;;;;;;;;;5044469;28;20142;-68
2022/09/29 03:41:32;;;;;;;36.88;24.33;;;;;;;;;;5041264;28;20055;-69
2022/09/29 03:43:57;;;;;;;41.22;26.50;;;;;;;;;;5044284;28;20042;-69
2022/09/29 03:46:25;;;;;;;46.88;29.35;;;;;;;;;;5033776;28;20045;-69
2022/09/29 03:48:50;;;;;;;34.80;23.55;;;;;;;;;;5042967;28;20047;-69
2022/09/29 03:51:16;;;;;;;38.42;24.92;;;;;;;;;;5042419;28;20794;-69
2022/09/29 03:53:43;;;;;;;34.90;22.42;;;;;;;;;;5040950;28;20040;-70
2022/09/29 03:56:11;;;;;;;34.22;20.80;;;;;;;;;;5049529;28;22510;-68
2022/09/29 03:58:36;;;;;;;33.15;20.42;;;;;;;;;;5044290;28;20044;-69
2022/09/29 04:01:01;;;;;;;34.97;20.40;;;;;;;;;;5043925;28;20045;-68
2022/09/29 04:03:27;;;;;;;31.45;19.67;;;;;;;;;;5045959;28;20047;-68
2022/09/29 04:05:52;;;;;;;31.80;20.38;;;;;;;;;;5045798;28;20183;-69
2022/09/29 04:08:17;;;;;;;31.25;19.40;;;;;;;;;;5060393;28;20047;-70
2022/09/29 04:10:46;;;;;;;31.20;19.52;;;;;;;;;;5044366;28;20060;-67
2022/09/29 04:13:11;;;;;;;32.30;19.67;;;;;;;;;;5045853;28;20086;-70
2022/09/29 04:15:37;;;;;;;33.50;21.45;;;;;;;;;;5028930;28;20039;-67
2022/09/29 04:18:03;;;;;;;31.05;19.38;;;;;;;;;;5037018;28;20074;-68
2022/09/29 04:20:28;;;;;;;34.65;22.08;;;;;;;;;;5042709;28;20040;-68
2022/09/29 04:22:56;;;;;;;34.20;21.67;;;;;;;;;;5043193;28;20043;-68
2022/09/29 04:25:22;;;;;;;34.33;22.85;;;;;;;;;;5035983;28;20048;-68
2022/09/29 04:27:47;;;;;;;35.13;20.17;;;;;;;;;;5044944;28;20032;-69
2022/09/29 04:30:13;;;;;;;38.22;23.50;;;;;;;;;;5032079;28;20037;-69
2022/09/29 04:32:38;;;;;;;38.58;23.65;;;;;;;;;;5043763;28;20040;-69
2022/09/29 04:35:04;;;;;;;40.72;22.63;;;;;;;;;;5043875;28;20040;-69
2022/09/29 04:37:32;;;;;;;40.80;23.70;;;;;;;;;;5046555;28;20063;-68
2022/09/29 04:39:58;;;;;;;38.58;22.40;;;;;;;;;;5036951;28;20078;-68
2022/09/29 04:42:23;;;;;;;34.50;20.40;;;;;;;;;;5033873;28;20048;-69
2022/09/29 04:44:49;;;;;;;36.90;22.17;;;;;;;;;;5059046;28;20046;-68
2022/09/29 04:47:16;;;;;;;35.78;20.98;;;;;;;;;;5043433;28;20147;-69
2022/09/29 04:49:47;;;;;;;31.88;20.63;;;;;;;;;;5043672;28;20159;-68
2022/09/29 04:52:14;;;;;;;34.92;21.08;;;;;;;;;;5028192;28;20024;-69
2022/09/29 04:54:40;;;;;;;39.45;23.05;;;;;;;;;;5046288;28;20043;-68
2022/09/29 04:57:09;;;;;;;33.67;20.08;;;;;;;;;;5043381;28;20082;-69
2022/09/29 04:59:36;;;;;;;37.22;22.05;;;;;;;;;;5045596;28;20051;-70
2022/09/29 05:02:04;;;;;;;35.22;20.42;;;;;;;;;;5044924;28;20039;-68
2022/09/29 05:04:29;;;;;;;37.70;21.98;;;;;;;;;;5044674;28;20032;-68
2022/09/29 05:06:55;;;;;;;33.25;22.10;;;;;;;;;;5044317;28;20036;-69
2022/09/29 05:09:20;;;;;;;39.50;24.20;;;;;;;;;;5045441;28;20499;-69
2022/09/29 05:11:48;;;;;;;35.92;22.05;;;;;;;;;;5044907;28;20041;-68
2022/09/29 05:14:13;;;;;;;33.83;21.48;;;;;;;;;;5050523;28;20589;-69
2022/09/29 05:16:39;;;;;;;37.90;23.60;;;;;;;;;;5047767;28;20032;-68
2022/09/29 05:19:04;;;;;;;37.55;24.25;;;;;;;;;;5034040;28;22357;-68
2022/09/29 05:21:30;;;;;;;36.55;23.38;;;;;;;;;;5050443;28;20036;-69
2022/09/29 05:23:55;;;;;;;37.88;23.42;;;;;;;;;;5043156;28;20875;-72
2022/09/29 05:26:21;;;;;;;33.35;21.50;;;;;;;;;;5043954;28;20688;-69
2022/09/29 05:28:46;;;;;;;32.53;21.13;;;;;;;;;;5056115;28;20036;-71
2022/09/29 05:31:12;;;;;;;33.47;22.02;;;;;;;;;;5039492;28;22325;-72
2022/09/29 05:33:38;;;;;;;36.20;22.02;;;;;;;;;;5055631;28;20077;-72
2022/09/29 05:36:06;;;;;;;34.97;20.98;;;;;;;;;;5040619;28;20024;-71
2022/09/29 05:38:32;;;;;;;40.50;24.23;;;;;;;;;;5039048;28;20109;-74
2022/09/29 05:41:02;;;;;;;38.33;22.85;;;;;;;;;;5039408;28;20942;-73
2022/09/29 05:43:28;;;;;;;41.60;24.90;;;;;;;;;;5041036;28;20191;-73
2022/09/29 05:45:58;;;;;;;39.90;23.33;;;;;;;;;;5041688;28;20032;-71
2022/09/29 05:48:25;;;;;;;38.60;22.70;;;;;;;;;;5041720;28;20865;-72
2022/09/29 05:50:54;;;;;;;35.72;23.42;;;;;;;;;;5040620;28;20036;-72
2022/09/29 05:53:19;;;;;;;39.42;24.20;;;;;;;;;;5042184;28;20060;-73
2022/09/29 05:55:44;;;;;;;36.67;24.08;;;;;;;;;;5040362;28;20039;-73
2022/09/29 05:58:10;;;;;;;38.72;23.23;;;;;;;;;;5040580;28;20066;-71
2022/09/29 06:00:35;;;;;;;42.40;25.23;;;;;;;;;;5015154;28;20079;-72
2022/09/29 06:03:00;;;;;;;45.13;25.20;;;;;;;;;;5015423;28;20064;-71
2022/09/29 06:05:26;;;;;;;39.25;23.65;;;;;;;;;;5038796;28;21203;-71
2022/09/29 06:07:52;;;;;;;42.47;26.20;;;;;;;;;;5038280;28;20032;-72
2022/09/29 06:10:20;;;;;;;49.42;28.80;;;;;;;;;;5039430;28;20040;-72
2022/09/29 06:12:46;;;;;;;45.38;27.02;;;;;;;;;;5040154;28;20072;-71
2022/09/29 06:15:14;;;;;;;44.70;27.77;;;;;;;;;;5039527;28;20159;-72
2022/09/29 06:17:39;;;;;;;45.70;28.17;;;;;;;;;;5039843;28;20031;-72
2022/09/29 06:20:05;;;;;;;45.90;27.05;;;;;;;;;;5031174;28;20083;-71
2022/09/29 06:22:31;;;;;;;47.45;28.08;;;;;;;;;;5036197;28;20040;-72
2022/09/29 06:24:56;;;;;;;48.10;27.40;;;;;;;;;;5038095;28;20059;-72
2022/09/29 06:27:22;;;;;;;45.95;29.45;;;;;;;;;;5037296;28;20036;-71
2022/09/29 06:29:49;;;;;;;48.03;28.60;;;;;;;;;;5037125;28;20641;-73
2022/09/29 06:32:15;;;;;;;47.00;28.77;;;;;;;;;;5038896;28;20078;-71
2022/09/29 06:37:33;;;;;;;48.38;29.85;;;;;;;;;;5040614;28;20036;-72
2022/09/29 06:37:34;;;;;;;50.08;31.38;;;;;;;;;;5039134;28;20044;-72
2022/09/29 06:40:02;;;;;;;74.30;38.30;;;;;;;;;;5038963;28;20122;-72
2022/09/29 06:42:28;;;;;;;62.10;37.53;;;;;;;;;;5035968;28;20056;-71
2022/09/29 06:44:53;;;;;;;56.88;35.88;;;;;;;;;;5038528;28;20123;-73
2022/09/29 06:47:19;;;;;;;55.63;34.78;;;;;;;;;;5035159;28;20063;-71
2022/09/29 06:49:47;;;;;;;57.33;35.17;;;;;;;;;;5037032;28;21148;-71
2022/09/29 06:52:12;;;;;;;56.60;35.22;;;;;;;;;;5048638;27;20036;-72
2022/09/29 06:54:38;;;;;;;58.67;35.80;;;;;;;;;;5012393;28;20215;-72
2022/09/29 06:57:03;;;;;;;61.40;36.40;;;;;;;;;;5034547;28;20107;-71
2022/09/29 06:59:28;;;;;;;66.10;39.17;;;;;;;;;;5034504;28;20713;-73
2022/09/29 07:01:54;;;;;;;68.15;41.15;;;;;;;;;;5034948;28;20045;-71
2022/09/29 07:04:20;;;;;;;64.88;39.10;;;;;;;;;;5036248;28;20081;-73
2022/09/29 07:06:45;;;;;;;65.18;40.53;;;;;;;;;;5036012;28;20426;-72
2022/09/29 07:09:14;;;;;;;69.22;43.65;;;;;;;;;;5036492;28;20058;-72
2022/09/29 07:11:40;;;;;;;70.30;42.20;;;;;;;;;;5050162;28;20066;-73
2022/09/29 07:14:06;;;;;;;79.25;47.67;;;;;;;;;;5036056;28;20327;-73
2022/09/29 07:16:31;;;;;;;90.75;52.60;;;;;;;;;;5017323;28;20067;-72
2022/09/29 07:18:56;;;;;;;87.63;51.50;;;;;;;;;;5017527;28;20043;-74
2022/09/29 07:21:22;;;;;;;84.55;50.05;;;;;;;;;;5049554;28;20048;-72
2022/09/29 07:23:51;;;;;;;105.82;51.05;;;;;;;;;;5036533;28;20625;-71
2022/09/29 07:26:16;;;;;;;79.82;47.15;;;;;;;;;;5035670;28;20373;-71
2022/09/29 07:28:42;;;;;;;56.08;39.13;;;;;;;;;;5035740;28;20397;-70
2022/09/29 07:31:13;;;;;;;49.28;30.45;;;;;;;;;;5034753;28;20525;-71
2022/09/29 07:33:38;;;;;;;37.97;27.38;;;;;;;;;;5036478;28;20274;-71
2022/09/29 07:36:03;;;;;;;38.97;26.38;;;;;;;;;;5035382;28;20046;-71
2022/09/29 07:38:32;;;;;;;36.67;24.05;;;;;;;;;;5035052;28;20032;-72
2022/09/29 07:41:03;;;;;;;33.47;22.80;;;;;;;;;;5022358;28;20611;-70
2022/09/29 07:43:29;;;;;;;33.40;23.55;;;;;;;;;;5026784;28;20039;-71
2022/09/29 07:45:55;;;;;;;32.78;21.75;;;;;;;;;;5035068;28;22082;-70
2022/09/29 07:48:21;;;;;;;34.45;22.65;;;;;;;;;;5034035;28;20045;-71
2022/09/29 07:50:46;;;;;;;33.85;22.27;;;;;;;;;;5032789;28;20032;-70
2022/09/29 07:53:15;;;;;;;26.60;19.38;;;;;;;;;;5031706;28;20579;-70
2022/09/29 07:55:40;;;;;;;24.33;17.42;;;;;;;;;;5042237;28;20036;-67
2022/09/29 07:58:05;;;;;;;27.75;17.98;;;;;;;;;;5076826;28;20443;-69
2022/09/29 08:00:31;;;;;;;21.45;15.90;;;;;;;;;;5062051;28;20071;-69
2022/09/29 08:03:03;;;;;;;24.35;15.57;;;;;;;;;;5060811;28;20028;-69
2022/09/29 08:05:32;;;;;;;24.17;15.05;;;;;;;;;;5061993;28;20073;-69
2022/09/29 08:07:58;;;;;;;30.27;17.27;;;;;;;;;;5052518;28;20032;-69
2022/09/29 08:10:29;;;;;;;28.88;14.80;;;;;;;;;;5063277;28;20086;-65
2022/09/29 08:12:55;;;;;;;28.25;15.38;;;;;;;;;;5064955;28;20481;-69
2022/09/29 08:15:21;;;;;;;28.77;16.02;;;;;;;;;;5061329;28;20028;-70
2022/09/29 08:17:46;;;;;;;28.55;15.85;;;;;;;;;;5062910;28;20412;-70
2022/09/29 08:20:11;;;;;;;26.50;18.05;;;;;;;;;;5063206;28;20043;-70
2022/09/29 08:22:37;;;;;;;27.55;17.88;;;;;;;;;;5060494;28;20036;-69
2022/09/29 08:25:03;;;;;;;25.10;16.77;;;;;;;;;;5061465;28;20029;-69
2022/09/29 08:27:30;;;;;;;28.30;17.02;;;;;;;;;;5059128;28;20110;-69
2022/09/29 08:29:56;;;;;;;24.52;16.65;;;;;;;;;;5058827;28;20501;-69
2022/09/29 08:32:24;;;;;;;28.92;16.35;;;;;;;;;;5045076;28;20047;-69
2022/09/29 08:34:50;;;;;;;26.45;16.23;;;;;;;;;;5060225;28;20504;-68
2022/09/29 08:37:15;;;;;;;22.35;14.52;;;;;;;;;;5037927;28;20081;-70
2022/09/29 08:39:41;;;;;;;23.70;13.57;;;;;;;;;;5042531;28;20201;-69
2022/09/29 08:42:15;;;;;;;22.88;14.88;;;;;;;;;;5071690;28;20045;-69
2022/09/29 08:44:44;;;;;;;17.25;12.77;;;;;;;;;;5040890;28;20048;-72
2022/09/29 08:47:17;;;;;;;17.67;12.70;;;;;;;;;;5055479;28;20120;-69
2022/09/29 08:49:46;;;;;;;17.95;12.18;;;;;;;;;;5051778;28;20918;-69
2022/09/29 08:52:14;;;;;;;17.98;12.00;;;;;;;;;;5071023;28;20032;-68
2022/09/29 08:54:41;;;;;;;16.23;12.02;;;;;;;;;;5053425;28;20040;-69
2022/09/29 08:57:16;;;;;;;19.63;12.30;;;;;;;;;;5053499;28;20040;-68
2022/09/29 08:59:41;;;;;;;20.08;12.40;;;;;;;;;;5051653;28;20602;-70
2022/09/29 09:02:21;;;;;;;20.25;12.55;;;;;;;;;;5051768;28;20040;-69
2022/09/29 09:04:52;;;;;;;17.70;11.80;;;;;;;;;;5070511;28;20090;-68
2022/09/29 09:07:18;;;;;;;19.45;12.02;;;;;;;;;;5030603;28;20036;-67
2022/09/29 09:09:58;;;;;;;18.75;12.82;;;;;;;;;;5053347;28;20515;-68
2022/09/29 09:12:49;;;;;;;18.23;11.75;;;;;;;;;;5053712;28;20538;-68
2022/09/29 09:15:36;;;;;;;16.63;10.60;;;;;;;;;;5035102;28;20044;-69
2022/09/29 09:18:10;;;;;;;19.27;9.63;;;;;;;;;;5039660;28;20044;-69
2022/09/29 09:20:43;;;;;;;16.05;9.43;;;;;;;;;;5053757;28;20036;-68
2022/09/29 09:23:23;;;;;;;16.80;9.93;;;;;;;;;;5050752;28;20919;-67
2022/09/29 09:25:57;;;;;;;12.45;8.13;;;;;;;;;;5041832;28;20999;-64
2022/09/29 09:28:31;;;;;;;13.23;8.40;;;;;;;;;;5043667;28;20807;-65
2022/09/29 09:30:56;;;;;;;12.82;8.00;;;;;;;;;;5021147;28;20032;-66
2022/09/29 09:33:26;;;;;;;11.93;6.82;;;;;;;;;;5022524;28;20430;-67
2022/09/29 09:35:53;;;;;;;14.25;6.55;;;;;;;;;;5041562;28;20197;-66
2022/09/29 09:38:24;;;;;;;9.23;6.80;;;;;;;;;;5040920;28;20119;-67
2022/09/29 09:40:52;;;;;;;8.90;6.68;;;;;;;;;;5041982;28;20075;-64
2022/09/29 09:43:27;;;;;;;9.57;7.50;;;;;;;;;;5043064;28;20208;-65
2022/09/29 09:46:01;;;;;;;13.18;7.75;;;;;;;;;;5043264;28;20036;-66
2022/09/29 09:48:34;;;;;;;10.65;6.85;;;;;;;;;;5042652;28;20055;-65
2022/09/29 09:51:22;;;;;;;15.52;5.72;;;;;;;;;;5045242;28;20043;-66
2022/09/29 09:53:49;;;;;;;7.60;3.08;;;;;;;;;;5036945;28;20059;-66
2022/09/29 09:56:31;;;;;;;7.72;3.00;;;;;;;;;;5044388;28;20036;-65
2022/09/29 09:58:59;;;;;;;7.28;3.33;;;;;;;;;;5047521;28;20807;-66
2022/09/29 10:01:27;;;;;;;9.00;3.28;;;;;;;;;;5047511;28;20708;-65
2022/09/29 10:03:52;;;;;;;6.93;2.72;;;;;;;;;;5047907;28;20039;-65
2022/09/29 10:06:17;;;;;;;7.00;1.90;;;;;;;;;;5049459;28;20036;-65
2022/09/29 10:08:43;;;;;;;7.13;1.90;;;;;;;;;;5046709;28;20154;-67
2022/09/29 10:11:11;;;;;;;8.30;2.17;;;;;;;;;;5046295;28;20040;-67
2022/09/29 10:13:37;;;;;;;5.00;1.75;;;;;;;;;;5046823;28;22254;-66
2022/09/29 10:16:05;;;;;;;4.93;1.50;;;;;;;;;;5047570;28;20101;-67
2022/09/29 10:18:36;;;;;;;4.68;1.55;;;;;;;;;;5046208;28;20655;-67
2022/09/29 10:21:01;;;;;;;5.17;1.47;;;;;;;;;;5041752;28;21018;-66
2022/09/29 10:23:31;;;;;;;6.68;1.50;;;;;;;;;;5045273;28;20028;-66
2022/09/29 10:26:15;;;;;;;6.15;1.70;;;;;;;;;;5043516;28;20117;-67
2022/09/29 10:28:43;;;;;;;5.45;1.55;;;;;;;;;;5046648;28;20036;-67
2022/09/29 10:31:37;;;;;;;7.65;2.05;;;;;;;;;;5041924;28;20032;-66
2022/09/29 10:34:09;;;;;;;5.65;1.42;;;;;;;;;;5023850;28;20036;-68
2022/09/29 10:36:51;;;;;;;3.10;1.40;;;;;;;;;;5045641;28;20090;-67
2022/09/29 10:39:35;;;;;;;3.67;1.13;;;;;;;;;;5052070;28;20062;-67
2022/09/29 10:42:01;;;;;;;6.07;1.30;;;;;;;;;;5048050;28;20048;-67
2022/09/29 10:44:29;;;;;;;5.70;1.40;;;;;;;;;;5035857;28;20090;-67
2022/09/29 10:46:56;;;;;;;5.50;1.30;;;;;;;;;;5045933;28;20039;-67
2022/09/29 10:49:27;;;;;;;4.32;1.30;;;;;;;;;;5045606;28;20040;-66
2022/09/29 10:52:02;;;;;;;4.25;1.38;;;;;;;;;;5044158;28;20858;-67
2022/09/29 10:54:29;;;;;;;3.78;1.40;;;;;;;;;;5044550;28;20590;-65
2022/09/29 10:56:55;;;;;;;4.03;1.50;;;;;;;;;;5044212;28;20040;-64
2022/09/29 10:59:22;;;;;;;4.53;1.60;;;;;;;;;;5041446;28;20213;-67
2022/09/29 11:01:52;;;;;;;3.47;1.73;;;;;;;;;;5042775;28;22544;-64
2022/09/29 11:04:20;;;;;;;7.10;1.55;;;;;;;;;;5058276;28;20148;-65
2022/09/29 11:06:49;;;;;;;5.95;1.50;;;;;;;;;;5066030;28;20066;-66
2022/09/29 11:09:15;;;;;;;6.25;1.60;;;;;;;;;;5042839;28;20037;-68
2022/09/29 11:11:48;;;;;;;6.63;1.70;;;;;;;;;;5043659;28;20036;-67
2022/09/29 11:14:29;;;;;;;5.85;1.52;;;;;;;;;;5048269;28;20254;-67
2022/09/29 11:16:56;;;;;;;5.82;1.92;;;;;;;;;;5047712;28;20063;-68
2022/09/29 11:19:24;;;;;;;6.55;1.67;;;;;;;;;;5042698;28;20520;-67
2022/09/29 11:21:58;;;;;;;6.18;2.05;;;;;;;;;;5057688;28;21786;-67
2022/09/29 11:24:35;;;;;;;6.63;2.60;;;;;;;;;;5042696;28;20037;-67
2022/09/29 11:27:15;;;;;;;4.57;1.75;;;;;;;;;;5044115;28;20730;-67
2022/09/29 11:30:00;;;;;;;5.53;2.05;;;;;;;;;;5041156;28;20036;-67
2022/09/29 11:32:29;;;;;;;2.53;1.60;;;;;;;;;;5040631;28;20032;-67
2022/09/29 11:34:57;;;;;;;3.67;1.75;;;;;;;;;;5041474;28;20625;-67
2022/09/29 11:37:31;;;;;;;6.55;2.00;;;;;;;;;;5043718;28;20030;-68
2022/09/29 11:40:06;;;;;;;5.00;1.90;;;;;;;;;;5031346;28;20047;-67
2022/09/29 11:42:42;;;;;;;8.45;2.45;;;;;;;;;;5041387;28;20145;-69
2022/09/29 11:45:09;;;;;;;5.32;2.35;;;;;;;;;;5042486;28;20036;-68
2022/09/29 11:47:47;;;;;;;7.20;2.20;;;;;;;;;;5044803;28;20037;-68
2022/09/29 11:50:20;;;;;;;5.20;2.15;;;;;;;;;;5042644;28;20040;-67
2022/09/29 11:52:48;;;;;;;5.60;2.58;;;;;;;;;;5043511;28;20043;-67
2022/09/29 11:55:13;;;;;;;8.48;3.00;;;;;;;;;;5041841;28;20033;-67
2022/09/29 11:57:45;;;;;;;8.05;2.78;;;;;;;;;;5044754;28;20032;-67
2022/09/29 12:00:13;;;;;;;7.60;2.58;;;;;;;;;;5045608;28;20540;-67
2022/09/29 12:02:41;;;;;;;4.30;2.53;;;;;;;;;;5042349;28;20340;-69
2022/09/29 12:05:19;;;;;;;6.05;2.08;;;;;;;;;;5048239;28;20196;-66
2022/09/29 12:07:50;;;;;;;5.10;2.15;;;;;;;;;;5052415;28;20036;-66
2022/09/29 12:10:15;;;;;;;5.57;2.40;;;;;;;;;;5047243;28;20155;-68
2022/09/29 12:12:46;;;;;;;5.47;2.10;;;;;;;;;;5046674;28;20033;-68
2022/09/29 12:15:20;;;;;;;4.78;1.77;;;;;;;;;;5049407;28;20048;-68
2022/09/29 12:17:52;;;;;;;6.55;1.83;;;;;;;;;;5045617;28;20032;-68
2022/09/29 12:20:24;;;;;;;5.30;2.10;;;;;;;;;;5059537;28;20031;-68
2022/09/29 12:22:52;;;;;;;4.63;2.00;;;;;;;;;;5042505;28;20691;-68
2022/09/29 12:25:24;;;;;;;4.57;2.05;;;;;;;;;;5042106;28;20063;-67
2022/09/29 12:27:52;;;;;;;4.65;1.95;;;;;;;;;;5054624;28;20744;-68
2022/09/29 12:30:20;;;;;;;4.47;1.85;;;;;;;;;;5055174;28;20120;-67
2022/09/29 12:32:46;;;;;;;3.95;2.20;;;;;;;;;;5057858;28;20086;-67
2022/09/29 12:35:16;;;;;;;4.40;1.83;;;;;;;;;;5052891;28;20036;-67
2022/09/29 12:37:52;;;;;;;4.47;1.92;;;;;;;;;;5049987;28;20047;-66
2022/09/29 12:40:31;;;;;;;3.13;1.80;;;;;;;;;;5044141;28;20883;-66
2022/09/29 12:43:03;;;;;;;3.78;1.58;;;;;;;;;;5040700;28;20036;-67
2022/09/29 12:45:45;;;;;;;3.30;1.50;;;;;;;;;;5028668;28;20538;-68
2022/09/29 12:48:11;;;;;;;;;;;;;;;;;;5046441;28;20035;-67
2022/09/29 12:51:00;;;;;;;5.80;1.70;;;;;;;;;;5043861;28;19916;-68
2022/09/29 12:53:37;;;;;;;3.15;1.23;;;;;;;;;;5043007;28;20346;-68
2022/09/29 12:56:06;;;;;;;5.80;1.60;;;;;;;;;;5042738;28;20490;-67
2022/09/29 12:58:36;;;;;;;5.95;1.20;;;;;;;;;;5024782;28;20036;-68
2022/09/29 13:01:20;;;;;;;4.10;1.10;;;;;;;;;;5043503;28;20232;-67
2022/09/29 13:03:54;;;;;;;3.35;1.13;;;;;;;;;;5044143;28;20288;-67
2022/09/29 13:06:22;;;;;;;3.58;1.30;;;;;;;;;;5045324;28;20036;-68
2022/09/29 13:08:48;;;;;;;5.28;0.90;;;;;;;;;;5046386;28;20081;-67
2022/09/29 13:11:32;;;;;;;2.10;0.90;;;;;;;;;;5046242;28;20560;-67
2022/09/29 13:14:03;;;;;;;2.28;0.93;;;;;;;;;;5046170;28;20040;-67
2022/09/29 13:16:32;;;;;;;1.95;0.82;;;;;;;;;;5050548;28;20040;-67
2022/09/29 13:19:16;;;;;;;2.45;0.82;;;;;;;;;;5050745;28;20032;-67
2022/09/29 13:22:00;;;;;;;2.55;0.70;;;;;;;;;;5049221;28;20036;-68
2022/09/29 13:24:25;;;;;;;1.63;0.90;;;;;;;;;;5047922;28;20097;-67
2022/09/29 13:27:12;;;;;;;1.95;0.88;;;;;;;;;;5047364;28;20636;-66
2022/09/29 13:30:00;;;;;;;2.30;0.77;;;;;;;;;;5051928;28;20172;-68
2022/09/29 13:32:25;;;;;;;2.42;0.80;;;;;;;;;;5053307;28;20039;-66
2022/09/29 13:34:54;;;;;;;3.55;0.90;;;;;;;;;;5051369;28;20318;-68
2022/09/29 13:37:21;;;;;;;2.35;0.70;;;;;;;;;;5049897;28;20067;-68
2022/09/29 13:39:58;;;;;;;2.50;0.70;;;;;;;;;;5049026;28;20040;-68
2022/09/29 13:42:25;;;;;;;2.22;0.90;;;;;;;;;;5048333;28;20174;-69
2022/09/29 13:45:09;;;;;;;1.30;0.80;;;;;;;;;;5048333;28;20137;-66
2022/09/29 13:47:43;;;;;;;1.63;0.70;;;;;;;;;;5046896;28;20033;-67
2022/09/29 13:50:27;;;;;;;1.48;0.63;;;;;;;;;;5036149;28;20051;-68
2022/09/29 13:52:53;;;;;;;2.85;0.85;;;;;;;;;;5048589;28;20036;-68
2022/09/29 13:55:48;;;;;;;2.63;0.80;;;;;;;;;;5036973;28;20439;-67
2022/09/29 13:58:23;;;;;;;3.80;1.00;;;;;;;;;;5009999;28;20047;-67
2022/09/29 14:00:49;;;;;;;2.47;0.77;;;;;;;;;;5029133;28;20641;-69
2022/09/29 14:03:30;;;;;;;3.47;1.20;;;;;;;;;;5041972;28;20044;-68
2022/09/29 14:05:58;;;;;;;;;;;;;;;;;;5046981;28;21025;-68
2022/09/29 14:08:29;;;;;;;1.83;0.70;;;;;;;;;;5045199;28;19959;-68
2022/09/29 14:11:00;;;;;;;1.27;0.77;;;;;;;;;;5044975;28;20104;-69
2022/09/29 14:13:25;;;;;;;3.67;0.70;;;;;;;;;;5042890;28;20093;-69
2022/09/29 14:16:06;;;;;;;3.25;0.80;;;;;;;;;;5045291;28;20038;-67
2022/09/29 14:18:34;;;;;;;2.75;0.50;;;;;;;;;;5044871;28;20289;-68
2022/09/29 14:21:03;;;;;;;2.10;0.60;;;;;;;;;;5044298;28;20115;-69
2022/09/29 14:23:49;;;;;;;1.58;0.68;;;;;;;;;;5043459;28;20144;-67
2022/09/29 14:26:40;;;;;;;2.50;0.60;;;;;;;;;;5041119;28;20676;-67
2022/09/29 14:29:28;;;;;;;2.63;0.63;;;;;;;;;;5008656;28;20118;-69
2022/09/29 14:31:56;;;;;;;1.95;0.70;;;;;;;;;;5039734;28;20029;-68
2022/09/29 14:34:23;;;;;;;2.45;0.73;;;;;;;;;;5039116;28;20184;-67
2022/09/29 14:36:50;;;;;;;1.65;0.65;;;;;;;;;;5038854;28;20051;-68
2022/09/29 14:39:16;;;;;;;2.30;0.73;;;;;;;;;;5040499;28;20071;-67
2022/09/29 14:41:42;;;;;;;2.17;0.95;;;;;;;;;;5054003;28;20036;-68